Time;durP1;ratioP1;P1;durP2;ratioP2;P2;SDS_P1;SDS_P2;PMS_P1;PMS_P2;Temp;Humidity;BMP_temperature;BMP_pressure;BME280_temperature;BME280_humidity;BME280_pressure;Samples;Min_cycle;Max_cycle;Signal;HPM_P1;HPM_P2
2023/07/22 00:00:05;;;;;;;;;;;;;;;19.63;45.96;101322.97;4850286;29;116149;-68
2023/07/22 00:02:32;;;;;;;;;;;;;;;19.60;46.02;101309.75;4854089;28;114858;-68
2023/07/22 00:05:00;;;;;;;;;;;;;;;19.59;45.93;101324.19;4852063;28;123550;-67
2023/07/22 00:07:27;;;;;;;;;;;;;;;19.56;46.05;101324.41;4851663;28;124688;-67
2023/07/22 00:09:54;;;;;;;;;;;;;;;19.54;46.07;101320.13;4855704;29;114909;-67
2023/07/22 00:12:25;;;;;;;;;;;;;;;19.51;46.12;101314.97;4855893;28;113865;-67
2023/07/22 00:14:53;;;;;;;;;;;;;;;19.48;46.03;101321.44;4855460;28;124024;-67
2023/07/22 00:17:20;;;;;;;;;;;;;;;19.46;46.05;101312.63;4854987;29;124496;-67
2023/07/22 00:19:48;;;;;;;;;;;;;;;19.46;46.02;101320.69;4853742;29;115212;-67
2023/07/22 00:22:15;;;;;;;;;;;;;;;19.42;46.06;101316.50;4856359;29;114640;-68
2023/07/22 00:24:42;;;;;;;;;;;;;;;19.41;46.00;101314.81;4856800;29;124554;-68
2023/07/22 00:27:09;;;;;;;;;;;;;;;19.39;46.04;101306.00;4854477;29;123975;-67
2023/07/22 00:29:36;;;;;;;;;;;;;;;19.34;46.14;101302.81;4855429;29;113996;-67
2023/07/22 00:32:06;;;;;;;;;;;;;;;19.31;46.26;101308.38;4855993;29;112664;-67
2023/07/22 00:34:34;;;;;;;;;;;;;;;19.28;46.13;101308.63;4854299;28;124356;-68
2023/07/22 00:37:01;;;;;;;;;;;;;;;19.25;46.22;101309.72;4850477;28;124178;-67
2023/07/22 00:39:28;;;;;;;;;;;;;;;19.23;46.21;101317.91;4854615;28;114826;-68
2023/07/22 00:41:55;;;;;;;;;;;;;;;19.22;46.21;101310.81;4858001;28;114974;-67
2023/07/22 00:44:22;;;;;;;;;;;;;;;19.19;46.32;101305.69;4853520;29;123636;-68
2023/07/22 00:46:52;;;;;;;;;;;;;;;19.17;46.39;101307.59;4855057;29;123066;-67
2023/07/22 00:49:19;;;;;;;;;;;;;;;19.16;46.17;101305.91;4848626;29;115667;-68
2023/07/22 00:51:46;;;;;;;;;;;;;;;19.15;46.32;101309.53;4852778;28;114543;-67
2023/07/22 00:54:13;;;;;;;;;;;;;;;19.15;46.45;101306.84;4846428;28;124671;-68
2023/07/22 00:56:41;;;;;;;;;;;;;;;19.14;46.32;101307.84;4854666;28;123170;-67
2023/07/22 00:59:08;;;;;;;;;;;;;;;19.14;46.28;101307.84;4847115;28;115147;-67
2023/07/22 01:01:35;;;;;;;;;;;;;;;19.11;46.46;101305.38;4852890;29;113522;-67
2023/07/22 01:04:04;;;;;;;;;;;;;;;19.11;46.47;101305.38;4844670;28;125077;-67
2023/07/22 01:06:31;;;;;;;;;;;;;;;19.11;46.24;101308.06;4849385;28;125010;-67
2023/07/22 01:08:58;;;;;;;;;;;;;;;19.10;46.51;101302.78;4850313;28;114797;-67
2023/07/22 01:11:25;;;;;;;;;;;;;;;19.11;46.54;101297.31;4849687;29;114538;-67
2023/07/22 01:13:57;;;;;;;;;;;;;;;19.12;46.39;101299.03;4845951;29;124504;-67
2023/07/22 01:16:26;;;;;;;;;;;;;;;19.12;46.46;101288.31;4848569;29;124366;-66
2023/07/22 01:18:54;;;;;;;;;;;;;;;19.16;46.56;101295.16;4853238;28;114430;-66
2023/07/22 01:21:24;;;;;;;;;;;;;;;19.14;46.39;101297.09;4855125;28;113970;-66
2023/07/22 01:23:52;;;;;;;;;;;;;;;19.13;46.48;101290.00;4851096;28;124134;-65
2023/07/22 01:26:19;;;;;;;;;;;;;;;19.11;46.34;101286.56;4852214;29;122871;-65
2023/07/22 01:28:46;;;;;;;;;;;;;;;19.09;46.44;101277.78;4850302;28;114912;-66
2023/07/22 01:31:13;;;;;;;;;;;;;;;19.09;46.59;101288.50;4852177;28;112699;-65
2023/07/22 01:33:40;;;;;;;;;;;;;;;19.09;46.65;101288.50;4852372;28;124127;-66
2023/07/22 01:36:07;;;;;;;;;;;;;;;19.10;46.43;101279.50;4856087;28;123376;-66
2023/07/22 01:38:35;;;;;;;;;;;;;;;19.07;46.59;101279.72;4854776;29;114338;-65
2023/07/22 01:41:02;;;;;;;;;;;;;;;19.05;46.54;101277.16;4846964;28;113741;-66
2023/07/22 01:43:29;;;;;;;;;;;;;;;19.02;46.73;101279.19;4856680;28;124244;-66
2023/07/22 01:45:56;;;;;;;;;;;;;;;19.00;46.55;101278.44;4856756;29;124886;-66
2023/07/22 01:48:25;;;;;;;;;;;;;;;19.01;46.69;101280.19;4853583;28;96733;-66
2023/07/22 01:50:52;;;;;;;;;;;;;;;18.99;46.57;101276.75;4849533;29;113724;-65
2023/07/22 01:53:20;;;;;;;;;;;;;;;19.00;46.79;101273.09;4853849;29;124380;-65
2023/07/22 01:55:47;;;;;;;;;;;;;;;18.99;46.80;101276.75;4856544;29;123428;-65
2023/07/22 01:58:14;;;;;;;;;;;;;;;19.00;46.76;101273.09;4850742;28;113360;-65
2023/07/22 02:00:41;;;;;;;;;;;;;;;19.00;46.73;101273.09;4853923;29;113051;-65
2023/07/22 02:03:08;;;;;;;;;;;;;;;19.01;46.89;101269.44;4854755;28;124473;-65
2023/07/22 02:05:36;;;;;;;;;;;;;;;19.01;46.86;101269.44;4853503;28;123427;-66
2023/07/22 02:08:03;;;;;;;;;;;;;;;19.01;46.69;101274.81;4846975;28;114913;-66
2023/07/22 02:10:30;;;;;;;;;;;;;;;19.01;46.77;101274.81;4855043;28;114995;-65
2023/07/22 02:12:57;;;;;;;;;;;;;;;19.00;46.76;101275.78;4855612;28;123659;-65
2023/07/22 02:15:24;;;;;;;;;;;;;;;19.01;46.88;101280.19;4854555;28;123226;-66
2023/07/22 02:17:51;;;;;;;;;;;;;;;18.99;46.88;101276.75;4854687;28;114746;-66
2023/07/22 02:20:18;;;;;;;;;;;;;;;18.99;46.81;101276.75;4855690;28;112999;-65
2023/07/22 02:22:46;;;;;;;;;;;;;;;18.99;46.82;101274.91;4855876;28;123233;-65
2023/07/22 02:25:14;;;;;;;;;;;;;;;18.98;46.75;101275.03;4853192;28;124375;-65
2023/07/22 02:27:41;;;;;;;;;;;;;;;18.98;47.02;101269.66;4847342;29;115644;-65
2023/07/22 02:30:11;;;;;;;;;;;;;;;18.98;46.77;101272.34;4853076;29;113480;-65
2023/07/22 02:32:40;;;;;;;;;;;;;;;18.98;46.97;101272.34;4853272;28;124537;-65
2023/07/22 02:35:07;;;;;;;;;;;;;;;18.98;46.87;101264.28;4846921;28;123302;-65
2023/07/22 02:37:36;;;;;;;;;;;;;;;18.99;46.87;101271.38;4851616;28;114461;-65
2023/07/22 02:40:13;;;;;;;;;;;;;;;18.98;46.83;101275.03;4844860;28;112794;-65
2023/07/22 02:42:40;;;;;;;;;;;;;;;18.98;47.03;101269.66;4846329;29;124181;-65
2023/07/22 02:45:07;;;;;;;;;;;;;;;19.00;46.88;101273.09;4850198;29;124073;-67
2023/07/22 02:47:35;;;;;;;;;;;;;;;18.98;46.94;101272.34;4840097;29;113639;-67
2023/07/22 02:50:03;;;;;;;;;;;;;;;18.95;46.91;101269.88;4854563;29;113589;-67
2023/07/22 02:52:30;;;;;;;;;;;;;;;18.95;46.90;101264.50;4848857;28;123289;-67
2023/07/22 02:55:18;;;;;;;;;;;;;;;18.94;46.84;101268.19;4849649;28;124198;-67
2023/07/22 02:57:46;;;;;;;;;;;;;;;18.92;47.04;101256.69;4848501;29;115137;-67
2023/07/22 03:00:17;;;;;;;;;;;;;;;18.91;47.02;101265.72;4850642;29;114139;-67
2023/07/22 03:02:44;;;;;;;;;;;;;;;18.90;47.05;101261.31;4848347;29;123855;-67
2023/07/22 03:05:12;;;;;;;;;;;;;;;18.89;47.12;101264.97;4854748;28;124934;-67
2023/07/22 03:07:39;;;;;;;;;;;;;;;18.88;47.01;101263.28;4853707;29;113611;-67
2023/07/22 03:10:07;;;;;;;;;;;;;;;18.85;47.07;101265.22;4849128;28;113394;-67
2023/07/22 03:12:34;;;;;;;;;;;;;;;18.83;47.05;101261.75;4853167;29;124434;-68
2023/07/22 03:15:03;;;;;;;;;;;;;;;18.80;47.06;101267.38;4854585;28;123011;-67
2023/07/22 03:17:30;;;;;;;;;;;;;;;18.78;46.93;101257.66;4852868;29;115556;-67
2023/07/22 03:19:57;;;;;;;;;;;;;;;18.75;47.07;101264.13;4853504;28;114009;-67
2023/07/22 03:22:24;;;;;;;;;;;;;;;18.72;46.97;101269.69;4854340;28;123258;-67
2023/07/22 03:24:51;;;;;;;;;;;;;;;18.68;47.08;101273.56;4852945;29;124353;-67
2023/07/22 03:27:18;;;;;;;;;;;;;;;18.64;46.98;101274.78;4854481;29;113526;-67
2023/07/22 03:29:45;;;;;;;;;;;;;;;18.59;47.14;101274.25;4851077;29;114039;-67
2023/07/22 03:32:12;;;;;;;;;;;;;;;18.57;47.16;101286.91;4853658;29;123211;-67
2023/07/22 03:34:40;;;;;;;;;;;;;;;18.52;47.02;101281.88;4854923;28;123220;-67
2023/07/22 03:37:07;;;;;;;;;;;;;;;18.51;47.05;101287.34;4854268;29;114783;-67
2023/07/22 03:39:34;;;;;;;;;;;;;;;18.46;47.04;101291.22;4853210;28;112609;-67
2023/07/22 03:42:01;;;;;;;;;;;;;;;18.43;47.16;101283.38;4853890;29;124632;-67
2023/07/22 03:44:29;;;;;;;;;;;;;;;18.41;47.05;101288.00;4855022;29;124333;-67
2023/07/22 03:46:56;;;;;;;;;;;;;;;18.37;47.14;101286.50;4857167;28;113633;-67
2023/07/22 03:49:24;;;;;;;;;;;;;;;18.33;47.21;101290.38;4855629;29;113065;-67
2023/07/22 03:51:51;;;;;;;;;;;;;;;18.30;47.11;101285.22;4854231;28;123485;-67
2023/07/22 03:54:18;;;;;;;;;;;;;;;18.28;47.36;101287.16;4854903;29;124374;-68
2023/07/22 03:56:45;;;;;;;;;;;;;;;18.25;47.14;101282.00;4856057;29;114497;-67
2023/07/22 03:59:12;;;;;;;;;;;;;;;18.22;47.19;101276.88;4857176;28;113048;-67
2023/07/22 04:01:39;;;;;;;;;;;;;;;18.19;47.09;101277.09;4850979;29;123324;-67
2023/07/22 04:04:09;;;;;;;;;;;;;;;18.16;47.21;101279.97;4850089;29;124224;-67
2023/07/22 04:06:36;;;;;;;;;;;;;;;18.13;47.28;101282.88;4850228;28;114345;-67
2023/07/22 04:09:03;;;;;;;;;;;;;;;18.11;47.35;101285.66;4851209;29;115040;-67
2023/07/22 04:11:30;;;;;;;;;;;;;;;18.07;47.30;101285.00;4856037;28;125154;-67
2023/07/22 04:13:58;;;;;;;;;;;;;;;18.06;47.31;101282.44;4852276;29;124182;-65
2023/07/22 04:16:25;;;;;;;;;;;;;;;18.04;47.46;101279.84;4854447;28;114892;-65
2023/07/22 04:18:53;;;;;;;;;;;;;;;18.03;47.38;101278.16;4857329;28;112659;-65
2023/07/22 04:21:20;;;;;;;;;;;;;;;18.02;47.31;101281.78;4856549;29;123431;-65
2023/07/22 04:23:48;;;;;;;;;;;;;;;18.00;47.51;101285.56;4856564;29;124280;-65
2023/07/22 04:26:16;;;;;;;;;;;;;;;17.97;47.48;101283.94;4853417;28;114325;-65
2023/07/22 04:28:43;;;;;;;;;;;;;;;17.95;47.36;101285.00;4855896;29;114035;-65
2023/07/22 04:31:10;;;;;;;;;;;;;;;17.93;47.52;101286.94;4856873;28;124200;-65
2023/07/22 04:33:37;;;;;;;;;;;;;;;17.92;47.40;101291.44;4853454;28;123147;-67
2023/07/22 04:36:06;;;;;;;;;;;;;;;17.91;47.56;101284.34;4847876;29;115020;-67
2023/07/22 04:38:33;;;;;;;;;;;;;;;17.91;47.55;101284.34;4852233;28;112800;-67
2023/07/22 04:41:03;;;;;;;;;;;;;;;17.90;47.54;101278.16;4850995;28;123904;-67
2023/07/22 04:43:30;;;;;;;;;;;;;;;17.91;47.73;101284.34;4848191;29;123733;-65
2023/07/22 04:45:58;;;;;;;;;;;;;;;17.93;47.59;101279.75;4856147;28;114475;-65
2023/07/22 04:48:25;;;;;;;;;;;;;;;17.93;47.57;101292.28;4847302;28;114347;-65
2023/07/22 04:50:52;;;;;;;;;;;;;;;17.94;47.77;101294.88;4850118;29;125161;-65
2023/07/22 04:53:21;;;;;;;;;;;;;;;17.94;47.71;101289.50;4845237;28;124741;-65
2023/07/22 04:55:48;;;;;;;;;;;;;;;17.96;47.80;101292.94;4852987;29;115675;-65
2023/07/22 04:58:15;;;;;;;;;;;;;;;17.98;47.69;101296.38;4853997;29;115341;-65
2023/07/22 05:00:43;;;;;;;;;;;;;;;18.01;47.74;101301.53;4853718;28;125248;-65
2023/07/22 05:03:10;;;;;;;;;;;;;;;18.03;47.85;101296.91;4855348;29;123981;-65
2023/07/22 05:05:37;;;;;;;;;;;;;;;18.06;47.82;101294.03;4852760;29;114491;-65
2023/07/22 05:08:07;;;;;;;;;;;;;;;18.10;47.97;101300.00;4854450;29;113875;-65
2023/07/22 05:10:34;;;;;;;;;;;;;;;18.13;47.79;101293.59;4849937;29;124423;-65
2023/07/22 05:13:01;;;;;;;;;;;;;;;18.16;47.81;101304.09;4852233;29;124209;-65
2023/07/22 05:15:28;;;;;;;;;;;;;;;18.19;47.82;101299.38;4854828;29;114753;-65
2023/07/22 05:17:55;;;;;;;;;;;;;;;18.23;48.12;101300.03;4857130;28;114566;-65
2023/07/22 05:20:22;;;;;;;;;;;;;;;18.26;47.98;101305.19;4851317;28;124350;-65
2023/07/22 05:22:49;;;;;;;;;;;;;;;18.32;47.84;101303.91;4849874;28;124145;-66
2023/07/22 05:25:16;;;;;;;;;;;;;;;18.33;47.93;101301.13;4846228;29;114658;-66
2023/07/22 05:27:43;;;;;;;;;;;;;;;18.36;47.94;101295.50;4848363;28;113794;-68
2023/07/22 05:30:11;;;;;;;;;;;;;;;18.39;47.95;101303.34;4847829;29;125284;-68
2023/07/22 05:32:54;;;;;;;;;;;;;;;18.43;47.80;101301.31;4845650;28;124019;-68
2023/07/22 05:35:22;;;;;;;;;;;;;;;18.46;48.05;101304.63;4847965;28;114558;-68
2023/07/22 05:37:49;;;;;;;;;;;;;;;18.51;47.95;101298.09;4854187;29;114619;-68
2023/07/22 05:40:16;;;;;;;;;;;;;;;18.56;47.92;101306.66;4849943;29;124688;-68
2023/07/22 05:42:43;;;;;;;;;;;;;;;18.59;48.05;101301.94;4852015;28;124455;-68
2023/07/22 05:45:13;;;;;;;;;;;;;;;18.64;48.08;101304.28;4850197;29;114977;-67
2023/07/22 05:47:40;;;;;;;;;;;;;;;18.69;47.97;101307.50;4854571;29;114390;-68
2023/07/22 05:50:07;;;;;;;;;;;;;;;18.72;47.93;101296.53;4851952;29;124093;-68
2023/07/22 05:52:34;;;;;;;;;;;;;;;18.77;47.96;101298.91;4852045;28;124108;-68
2023/07/22 05:55:02;;;;;;;;;;;;;;;18.81;48.01;101295.91;4852727;29;113724;-68
2023/07/22 05:57:29;;;;;;;;;;;;;;;18.87;48.10;101302.66;4845262;29;113613;-68
2023/07/22 05:59:57;;;;;;;;;;;;;;;18.95;48.20;101302.09;4848193;29;124176;-68
2023/07/22 06:02:40;;;;;;;;;;;;;;;19.01;48.12;101296.28;4847941;29;123860;-68
2023/07/22 06:05:08;;;;;;;;;;;;;;;19.08;48.20;101291.31;4855724;28;113616;-68
2023/07/22 06:07:36;;;;;;;;;;;;;;;19.13;48.19;101284.63;4855285;28;113579;-68
2023/07/22 06:10:03;;;;;;;;;;;;;;;19.19;47.99;101284.19;4841989;29;124178;-68
2023/07/22 06:12:30;;;;;;;;;;;;;;;19.28;48.10;101281.78;4852524;29;124807;-68
2023/07/22 06:14:57;;;;;;;;;;;;;;;19.35;48.08;101281.19;4856400;29;114611;-69
2023/07/22 06:17:24;;;;;;;;;;;;;;;19.45;48.09;101289.41;4853305;29;113926;-68
2023/07/22 06:19:52;;;;;;;;;;;;;;;19.52;48.29;101290.69;4852001;28;124456;-68
2023/07/22 06:22:19;;;;;;;;;;;;;;;19.61;48.04;101281.06;4853639;29;124115;-68
2023/07/22 06:24:45;;;;;;;;;;;;;;;19.68;48.03;101284.13;4851986;28;114811;-68
2023/07/22 06:27:13;;;;;;;;;;;;;;;19.75;48.02;101285.41;4855724;28;113997;-68
2023/07/22 06:29:40;;;;;;;;;;;;;;;19.82;48.12;101275.91;4853259;28;124843;-68
2023/07/22 06:32:07;;;;;;;;;;;;;;;19.90;48.18;101276.16;4853035;29;124657;-68
2023/07/22 06:34:34;;;;;;;;;;;;;;;20.03;48.25;101281.44;4851232;29;115433;-68
2023/07/22 06:37:01;;;;;;;;;;;;;;;20.15;48.16;101276.94;4853662;29;114784;-68
2023/07/22 06:39:28;;;;;;;;;;;;;;;20.26;48.13;101285.00;4851227;28;124174;-68
2023/07/22 06:41:55;;;;;;;;;;;;;;;20.33;48.11;101275.47;4854926;28;123887;-68
2023/07/22 06:44:22;;;;;;;;;;;;;;;20.42;48.14;101280.13;4855184;28;113407;-68
2023/07/22 06:46:49;;;;;;;;;;;;;;;20.53;48.17;101275.72;4851317;28;114086;-68
2023/07/22 06:49:16;;;;;;;;;;;;;;;20.65;48.21;101280.16;4852189;28;124402;-68
2023/07/22 06:51:43;;;;;;;;;;;;;;;20.76;48.08;101280.13;4852367;29;124529;-68
2023/07/22 06:54:10;;;;;;;;;;;;;;;20.90;48.24;101272.75;4855676;29;114151;-68
2023/07/22 06:56:37;;;;;;;;;;;;;;;21.00;48.10;101273.72;4853491;29;114396;-69
2023/07/22 06:59:04;;;;;;;;;;;;;;;21.09;48.00;101267.56;4850089;29;123009;-68
2023/07/22 07:01:31;;;;;;;;;;;;;;;21.14;48.01;101262.66;4854595;29;124287;-66
2023/07/22 07:03:59;;;;;;;;;;;;;;;21.19;47.82;101257.75;4850226;29;114427;-66
2023/07/22 07:06:26;;;;;;;;;;;;;;;21.24;47.91;101264.59;4853615;29;114102;-66
2023/07/22 07:08:53;;;;;;;;;;;;;;;21.31;47.85;101260.41;4849052;29;125067;-66
2023/07/22 07:11:20;;;;;;;;;;;;;;;21.40;47.95;101259.63;4859767;28;124545;-67
2023/07/22 07:13:47;;;;;;;;;;;;;;;21.49;48.15;101258.88;4857564;28;113510;-67
2023/07/22 07:16:25;;;;;;;;;;;;;;;21.61;48.13;101262.38;4856157;29;113502;-67
2023/07/22 07:18:53;;;;;;;;;;;;;;;21.71;47.98;101262.44;4846584;29;125183;-66
2023/07/22 07:21:21;;;;;;;;;;;;;;;21.79;47.89;101265.31;4853305;28;124168;-66
2023/07/22 07:23:48;;;;;;;;;;;;;;;21.86;47.89;101261.13;4857400;29;115100;-67
2023/07/22 07:26:15;;;;;;;;;;;;;;;21.95;47.81;101260.31;4846561;28;114549;-66
2023/07/22 07:28:43;;;;;;;;;;;;;;;22.03;47.84;101256.09;4854995;29;124747;-69
2023/07/22 07:31:10;;;;;;;;;;;;;;;22.10;47.91;101251.88;4856822;28;125000;-68
2023/07/22 07:33:37;;;;;;;;;;;;;;;22.16;47.72;101257.59;4862485;28;114497;-69
2023/07/22 07:36:04;;;;;;;;;;;;;;;22.23;47.81;101257.06;4851527;28;113966;-69
2023/07/22 07:38:31;;;;;;;;;;;;;;;22.29;47.67;101268.19;4861461;28;124429;-69
2023/07/22 07:41:00;;;;;;;;;;;;;;;22.32;47.72;101262.53;4853672;29;123747;-69
2023/07/22 07:43:27;;;;;;;;;;;;;;;22.38;47.74;101262.97;4846202;28;115200;-69
2023/07/22 07:46:13;;;;;;;;;;;;;;;22.42;47.70;101267.13;4853900;28;113924;-69
2023/07/22 07:48:40;;;;;;;;;;;;;;;22.44;47.55;101265.16;4854671;29;124252;-68
2023/07/22 07:51:07;;;;;;;;;;;;;;;22.45;47.52;101261.44;4856997;28;124101;-69
2023/07/22 07:53:34;;;;;;;;;;;;;;;22.49;47.63;101268.25;4850943;29;115420;-69
2023/07/22 07:56:01;;;;;;;;;;;;;;;22.49;47.50;101265.56;4850447;28;113983;-69
2023/07/22 07:58:28;;;;;;;;;;;;;;;22.50;47.58;101264.59;4845468;28;124020;-69
2023/07/22 08:00:55;;;;;;;;;;;;;;;22.51;47.64;101261.75;4857358;29;124158;-67
2023/07/22 08:03:22;;;;;;;;;;;;;;;22.53;47.54;101264.31;4858894;29;114962;-67
2023/07/22 08:05:49;;;;;;;;;;;;;;;22.53;47.57;101269.72;4856978;28;113592;-67
2023/07/22 08:08:16;;;;;;;;;;;;;;;22.55;47.59;101262.34;4856735;29;124279;-67
2023/07/22 08:10:44;;;;;;;;;;;;;;;22.59;47.53;101269.16;4855261;29;123337;-67
2023/07/22 08:13:11;;;;;;;;;;;;;;;22.63;47.60;101276.00;4859449;28;114427;-67
2023/07/22 08:15:42;;;;;;;;;;;;;;;22.67;47.66;101272.03;4852358;28;115253;-67
2023/07/22 08:18:09;;;;;;;;;;;;;;;22.72;47.51;101274.34;4857517;28;123107;-67
2023/07/22 08:20:36;;;;;;;;;;;;;;;22.76;47.72;101269.50;4856725;28;124241;-67
2023/07/22 08:23:03;;;;;;;;;;;;;;;22.81;47.66;101278.03;4854940;28;114929;-67
2023/07/22 08:25:30;;;;;;;;;;;;;;;22.89;47.81;101275.50;4858018;29;114041;-68
2023/07/22 08:27:57;;;;;;;;;;;;;;;22.98;47.68;101274.69;4854734;28;124185;-68
2023/07/22 08:30:24;;;;;;;;;;;;;;;23.04;47.75;101274.16;4855737;29;123986;-70
2023/07/22 08:32:52;;;;;;;;;;;;;;;23.15;47.76;101272.28;4852923;29;114896;-69
2023/07/22 08:35:19;;;;;;;;;;;;;;;23.22;47.72;101276.16;4856495;29;114202;-69
2023/07/22 08:37:46;;;;;;;;;;;;;;;23.27;47.69;101268.47;4853057;28;125158;-69
2023/07/22 08:40:14;;;;;;;;;;;;;;;23.31;47.63;101270.75;4854356;28;125138;-69
2023/07/22 08:42:41;;;;;;;;;;;;;;;23.36;47.54;101267.63;4849019;29;114520;-69
2023/07/22 08:45:11;;;;;;;;;;;;;;;23.47;47.79;101264.78;4856698;29;113139;-70
2023/07/22 08:47:44;;;;;;;;;;;;;;;23.58;47.65;101269.16;4855197;29;124138;-69
2023/07/22 08:50:14;;;;;;;;;;;;;;;23.67;47.67;101272.88;4855094;28;124811;-69
2023/07/22 08:52:41;;;;;;;;;;;;;;;23.76;47.79;101269.31;4855195;29;114916;-69
2023/07/22 08:55:10;;;;;;;;;;;;;;;23.84;47.55;101264.03;4856084;28;112596;-69
2023/07/22 08:57:38;;;;;;;;;;;;;;;23.90;47.36;101266.19;4855868;28;124500;-69
2023/07/22 09:00:06;;;;;;;;;;;;;;;23.94;47.32;101265.88;4850881;29;123330;-69
2023/07/22 09:02:33;;;;;;;;;;;;;;;24.03;47.47;101267.69;4857077;28;115507;-69
2023/07/22 09:05:01;;;;;;;;;;;;;;;24.14;47.46;101272.94;4856477;29;113699;-69
2023/07/22 09:07:28;;;;;;;;;;;;;;;24.27;47.47;101265.34;4856001;29;124594;-69
2023/07/22 09:09:57;;;;;;;;;;;;;;;24.38;47.55;101263.47;4852715;29;125013;-69
2023/07/22 09:12:24;;;;;;;;;;;;;;;24.48;47.41;101272.38;4854142;29;114457;-69
2023/07/22 09:14:52;;;;;;;;;;;;;;;24.60;47.39;101268.53;4852015;29;114589;-69
2023/07/22 09:17:19;;;;;;;;;;;;;;;24.72;47.41;101271.03;4854469;29;124243;-69
2023/07/22 09:19:46;;;;;;;;;;;;;;;24.79;47.12;101261.25;4853726;28;124084;-69
2023/07/22 09:22:13;;;;;;;;;;;;;;;24.83;47.32;101273.53;4856721;29;114696;-69
2023/07/22 09:24:40;;;;;;;;;;;;;;;24.86;47.00;101267.78;4853595;29;113746;-69
2023/07/22 09:27:08;;;;;;;;;;;;;;;24.88;47.21;101271.19;4853385;29;124185;-69
2023/07/22 09:29:36;;;;;;;;;;;;;;;24.93;47.18;101274.31;4854034;29;124462;-69
2023/07/22 09:32:04;;;;;;;;;;;;;;;24.98;46.97;101261.16;4857028;29;114597;-69
2023/07/22 09:34:31;;;;;;;;;;;;;;;25.03;47.06;101266.97;4854333;29;114018;-69
2023/07/22 09:37:03;;;;;;;;;;;;;;;25.05;47.04;101262.25;4858235;28;125036;-67
2023/07/22 09:39:31;;;;;;;;;;;;;;;25.06;46.74;101261.22;4853473;29;124085;-67
2023/07/22 09:42:00;;;;;;;;;;;;;;;25.05;46.64;101262.25;4853130;29;114317;-67
2023/07/22 09:44:32;;;;;;;;;;;;;;;25.01;46.70;101254.56;4854226;29;114310;-67
2023/07/22 09:47:05;;;;;;;;;;;;;;;24.97;46.78;101259.44;4855329;28;124383;-67
2023/07/22 09:49:33;;;;;;;;;;;;;;;24.97;46.91;101248.59;4847203;29;124512;-68
2023/07/22 09:52:08;;;;;;;;;;;;;;;24.96;46.75;101260.47;4849300;28;115564;-67
2023/07/22 09:54:35;;;;;;;;;;;;;;;24.98;46.57;101261.16;4840781;29;114406;-67
2023/07/22 09:57:04;;;;;;;;;;;;;;;24.98;46.76;101250.31;4856133;28;124185;-67
2023/07/22 09:59:31;;;;;;;;;;;;;;;25.01;46.77;101249.16;4848398;28;123931;-67
2023/07/22 10:02:02;;;;;;;;;;;;;;;25.04;46.84;101249.69;4846977;28;114422;-67
2023/07/22 10:04:33;;;;;;;;;;;;;;;25.08;46.58;101243.97;4854113;29;113696;-69
2023/07/22 10:07:00;;;;;;;;;;;;;;;25.10;46.71;101253.66;4851169;29;125122;-69
2023/07/22 10:09:28;;;;;;;;;;;;;;;25.12;46.56;101246.22;4852228;29;122997;-67
2023/07/22 10:11:55;;;;;;;;;;;;;;;25.13;46.68;101247.06;4844462;28;114347;-70
2023/07/22 10:14:22;;;;;;;;;;;;;;;25.13;46.36;101247.94;4846512;29;113930;-67
2023/07/22 10:16:49;;;;;;;;;;;;;;;25.18;46.61;101255.59;4847435;29;124492;-67
2023/07/22 10:19:17;;;;;;;;;;;;;;;25.20;46.45;101248.16;4851469;28;124042;-67
2023/07/22 10:21:45;;;;;;;;;;;;;;;25.24;46.57;101245.03;4850829;28;114880;-67
2023/07/22 10:24:12;;;;;;;;;;;;;;;25.34;46.80;101244.09;4856052;29;113712;-67
2023/07/22 10:26:39;;;;;;;;;;;;;;;25.40;46.47;101238.03;4849355;28;124187;-67
2023/07/22 10:29:14;;;;;;;;;;;;;;;25.45;46.38;101247.41;4850545;29;124839;-67
2023/07/22 10:31:41;;;;;;;;;;;;;;;25.49;46.14;101244.38;4848712;28;114510;-69
2023/07/22 10:34:08;;;;;;;;;;;;;;;25.49;46.07;101242.53;4850902;29;113985;-70
2023/07/22 10:36:36;;;;;;;;;;;;;;;25.49;45.99;101244.38;4847672;29;123985;-69
2023/07/22 10:39:04;;;;;;;;;;;;;;;25.48;46.08;101239.97;4852603;29;124442;-69
2023/07/22 10:41:32;;;;;;;;;;;;;;;25.44;46.23;101244.84;4855255;29;117446;-69
2023/07/22 10:44:00;;;;;;;;;;;;;;;25.41;46.24;101240.59;4851089;28;115101;-69
2023/07/22 10:46:33;;;;;;;;;;;;;;;25.42;46.10;101242.28;4850810;28;124008;-70
2023/07/22 10:49:11;;;;;;;;;;;;;;;25.43;46.08;101244.00;4842709;29;123984;-68
2023/07/22 10:51:38;;;;;;;;;;;;;;;25.44;46.32;101237.53;4844677;28;114725;-67
2023/07/22 10:54:12;;;;;;;;;;;;;;;25.47;46.13;101238.25;4858112;28;113689;-67
2023/07/22 10:56:45;;;;;;;;;;;;;;;25.51;46.06;101239.66;4847712;28;124596;-68
2023/07/22 10:59:12;;;;;;;;;;;;;;;25.51;46.32;101235.06;4849781;28;123920;-68
2023/07/22 11:01:40;;;;;;;;;;;;;;;25.51;45.96;101231.53;4856801;28;114315;-67
2023/07/22 11:04:16;;;;;;;;;;;;;;;25.51;46.14;101235.06;4846013;29;114650;-69
2023/07/22 11:06:43;;;;;;;;;;;;;;;25.50;46.06;101227.09;4847971;28;123147;-69
2023/07/22 11:09:34;;;;;;;;;;;;;;;25.48;45.89;101229.09;4853010;28;125209;-70
2023/07/22 11:12:01;;;;;;;;;;;;;;;25.49;46.02;101236.25;4854526;28;114891;-69
2023/07/22 11:14:30;;;;;;;;;;;;;;;25.53;46.01;101232.22;4839583;29;113758;-70
2023/07/22 11:16:58;;;;;;;;;;;;;;;25.54;46.12;101234.78;4855042;29;124516;-70
2023/07/22 11:19:25;;;;;;;;;;;;;;;25.59;45.92;101231.56;4850606;29;124980;-69
2023/07/22 11:21:53;;;;;;;;;;;;;;;25.62;45.96;101225.84;4854543;29;115355;-69
2023/07/22 11:24:20;;;;;;;;;;;;;;;25.66;45.91;101221.78;4853839;29;113912;-69
2023/07/22 11:26:48;;;;;;;;;;;;;;;25.69;45.87;101215.19;4848345;28;124184;-70
2023/07/22 11:29:16;;;;;;;;;;;;;;;25.71;45.90;101207.75;4850830;29;124383;-70
2023/07/22 11:31:45;;;;;;;;;;;;;;;25.78;45.87;101208.81;4846577;29;115512;-70
2023/07/22 11:34:13;;;;;;;;;;;;;;;25.89;45.92;101199.56;4847980;29;114823;-70
2023/07/22 11:36:41;;;;;;;;;;;;;;;26.01;46.22;101209.13;4850569;29;124852;-70
2023/07/22 11:39:09;;;;;;;;;;;;;;;26.10;46.17;101208.16;4845951;29;124768;-70
2023/07/22 11:41:37;;;;;;;;;;;;;;;26.12;45.90;101208.84;4842350;28;114177;-69
2023/07/22 11:44:08;;;;;;;;;;;;;;;26.12;45.86;101203.44;4851655;29;114389;-70
2023/07/22 11:46:36;;;;;;;;;;;;;;;26.18;45.55;101220.94;4848373;28;124216;-70
2023/07/22 11:49:03;;;;;;;;;;;;;;;26.21;45.88;101205.16;4838752;29;122887;-69
2023/07/22 11:51:31;;;;;;;;;;;;;;;26.26;45.77;101196.56;4843569;28;115036;-70
2023/07/22 11:53:58;;;;;;;;;;;;;;;26.32;45.56;101200.47;4854841;29;113684;-70
2023/07/22 11:56:28;;;;;;;;;;;;;;;26.39;45.70;101213.25;4852019;29;124404;-70
2023/07/22 11:58:56;;;;;;;;;;;;;;;26.43;45.47;101197.47;4855790;29;124980;-70
2023/07/22 12:01:23;;;;;;;;;;;;;;;26.42;45.48;101195.75;4849504;29;114512;-70
2023/07/22 12:03:55;;;;;;;;;;;;;;;26.40;45.37;101211.38;4855818;29;114150;-70
2023/07/22 12:06:25;;;;;;;;;;;;;;;26.39;45.20;101190.63;4855316;29;124686;-70
2023/07/22 12:08:52;;;;;;;;;;;;;;;26.40;45.36;101197.78;4853439;28;124310;-70
2023/07/22 12:11:20;;;;;;;;;;;;;;;26.41;45.16;101185.91;4857378;29;115241;-69
2023/07/22 12:13:50;;;;;;;;;;;;;;;26.43;44.96;101189.31;4850226;29;113649;-70
2023/07/22 12:16:21;;;;;;;;;;;;;;;26.45;45.26;101190.00;4847170;29;124776;-69
2023/07/22 12:18:49;;;;;;;;;;;;;;;26.50;45.03;101184.91;4846540;28;124567;-70
2023/07/22 12:21:16;;;;;;;;;;;;;;;26.53;44.93;101181.88;4854281;28;116378;-69
2023/07/22 12:23:43;;;;;;;;;;;;;;;26.53;45.07;101181.03;4852097;29;114967;-69
2023/07/22 12:26:10;;;;;;;;;;;;;;;26.54;44.88;101183.56;4850095;28;124707;-69
2023/07/22 12:28:37;;;;;;;;;;;;;;;26.56;44.85;101176.09;4846497;28;124998;-68
2023/07/22 12:31:04;;;;;;;;;;;;;;;26.60;44.97;101171.22;4852544;28;114443;-67